Airfield :







YOU CAN JOIN US ON...

 
LOGIN :

Register | Disclaimer

   EN    FR    IT 

 









Legend :    VFR   Marginal VFR   IFR   Intensive IFR   Very Intensive IFR
Visi :
Ceiling :
>= 8 km
>= 3000ft
5 to 8 km
1000 to 3000 ft
1500m to 5 km
500 to 1000 ft
800 to 1500m
200 to 500 ft
< 800m
< 200 ft
Symbols :   Thunderstorms  Fog  Heavy snow  Heavy precipitations  Wind > 20 kt






- Airport Elevation : 328 ft


KGFL - Floyd Bennett Memorial

CURRENT METAR :
  • 070953Z AUTO 00000KT 10SM CLR 10/08 A2991 RMK AO2 SLP126 T01000083

EXPIRED METARs :
  • 070853Z AUTO 00000KT 10SM SCT036 11/08 A2989 RMK AO2 SLP120 T01060083 53011
  • 070753Z AUTO 29003KT 10SM FEW065 11/09 A2987 RMK AO2 SLP114 T01110089
  • 070653Z AUTO 34006KT 10SM CLR 13/09 A2986 RMK AO2 SLP111 T01330089

TAF KGFL
Valid from the 07 at 06:00 until the 08 at 06:00 UTC


070520Z 0706/0806 01008KT P6SM SCT050
FM071400 02012G22KT P6SM BKN050
FM072200 02006KT P6SM SCT050
KZBW FIR / North America



MET'MAP, your aeronautical weather chart ! - Copyright ORBIFLY December 2007 - Disclaimer

ORBIFLY MET'MAP TEAM :

Programming & Development : Alexandra Zaïnal
Concept & original design : Baudouin d'Aumeries
Assistance for programming : Marc-Olivier Méhu
Technical & hardware support : Manuel Goepfert

Contact : metmap@orbifly.com




SOURCES & CREDITS :

   NOAA